sensor_id;sensor_type;location;lat;lon;timestamp;pressure;altitude;pressure_sealevel;temperature;humidity
79455;BME280;68900;52.134;5.420;2023-08-06T00:01:49;100598.97;;;15.35;91.46
79455;BME280;68900;52.134;5.420;2023-08-06T00:04:15;100598.97;;;15.35;91.31
79455;BME280;68900;52.134;5.420;2023-08-06T00:06:42;100590.81;;;15.35;90.90
79455;BME280;68900;52.134;5.420;2023-08-06T00:09:10;100587.06;;;15.36;91.47
79455;BME280;68900;52.134;5.420;2023-08-06T00:11:37;100588.91;;;15.35;90.94
79455;BME280;68900;52.134;5.420;2023-08-06T00:14:05;100592.50;;;15.36;91.21
79455;BME280;68900;52.134;5.420;2023-08-06T00:16:33;100589.78;;;15.36;91.41
79455;BME280;68900;52.134;5.420;2023-08-06T00:19:00;100591.84;;;15.34;91.33
79455;BME280;68900;52.134;5.420;2023-08-06T00:21:26;100590.63;;;15.36;91.17
79455;BME280;68900;52.134;5.420;2023-08-06T00:23:53;100591.28;;;15.38;90.70
79455;BME280;68900;52.134;5.420;2023-08-06T00:26:21;100585.28;;;15.43;90.71
79455;BME280;68900;52.134;5.420;2023-08-06T00:28:48;100590.72;;;15.43;91.03
79455;BME280;68900;52.134;5.420;2023-08-06T00:31:15;100590.03;;;15.41;90.91
79455;BME280;68900;52.134;5.420;2023-08-06T00:33:42;100588.56;;;15.38;91.04
79455;BME280;68900;52.134;5.420;2023-08-06T00:36:08;100588.56;;;15.38;90.96
79455;BME280;68900;52.134;5.420;2023-08-06T00:38:35;100588.75;;;15.37;91.02
79455;BME280;68900;52.134;5.420;2023-08-06T00:41:01;100585.84;;;15.38;91.09
79455;BME280;68900;52.134;5.420;2023-08-06T00:43:28;100586.31;;;15.42;91.10
79455;BME280;68900;52.134;5.420;2023-08-06T00:46:04;100588.34;;;15.40;91.14
79455;BME280;68900;52.134;5.420;2023-08-06T00:48:31;100584.16;;;15.37;90.76
79455;BME280;68900;52.134;5.420;2023-08-06T00:51:01;100586.19;;;15.35;90.94
79455;BME280;68900;52.134;5.420;2023-08-06T00:53:28;100585.56;;;15.33;90.98
79455;BME280;68900;52.134;5.420;2023-08-06T00:55:54;100585.28;;;15.28;91.47
79455;BME280;68900;52.134;5.420;2023-08-06T00:58:21;100578.81;;;15.29;91.54
79455;BME280;68900;52.134;5.420;2023-08-06T01:01:02;100587.63;;;15.31;91.00
79455;BME280;68900;52.134;5.420;2023-08-06T01:03:28;100585.28;;;15.28;91.36
79455;BME280;68900;52.134;5.420;2023-08-06T01:05:55;100584.91;;;15.31;91.27
79455;BME280;68900;52.134;5.420;2023-08-06T01:08:48;100582.00;;;15.33;91.44
79455;BME280;68900;52.134;5.420;2023-08-06T01:11:38;100577.59;;;15.32;91.08
79455;BME280;68900;52.134;5.420;2023-08-06T01:14:23;100574.50;;;15.35;91.05
79455;BME280;68900;52.134;5.420;2023-08-06T01:16:51;100578.44;;;15.32;91.18
79455;BME280;68900;52.134;5.420;2023-08-06T01:19:19;100572.81;;;15.34;91.18
79455;BME280;68900;52.134;5.420;2023-08-06T01:21:46;100576.56;;;15.33;91.19
79455;BME280;68900;52.134;5.420;2023-08-06T01:24:13;100576.56;;;15.33;91.36
79455;BME280;68900;52.134;5.420;2023-08-06T01:26:53;100578.91;;;15.36;91.16
79455;BME280;68900;52.134;5.420;2023-08-06T01:29:34;100579.09;;;15.34;91.27
79455;BME280;68900;52.134;5.420;2023-08-06T01:32:03;100580.75;;;15.35;90.94
79455;BME280;68900;52.134;5.420;2023-08-06T01:34:32;100579.56;;;15.38;90.81
79455;BME280;68900;52.134;5.420;2023-08-06T01:37:00;100577.88;;;15.37;90.61
79455;BME280;68900;52.134;5.420;2023-08-06T01:39:27;100582.66;;;15.35;91.45
79455;BME280;68900;52.134;5.420;2023-08-06T01:41:54;100576.75;;;15.31;91.26
79455;BME280;68900;52.134;5.420;2023-08-06T01:44:23;100583.25;;;15.30;91.41
79455;BME280;68900;52.134;5.420;2023-08-06T01:46:49;100581.53;;;15.29;91.39
79455;BME280;68900;52.134;5.420;2023-08-06T01:49:17;100578.16;;;15.27;91.37
79455;BME280;68900;52.134;5.420;2023-08-06T01:51:44;100579.75;;;15.22;91.97
79455;BME280;68900;52.134;5.420;2023-08-06T01:54:10;100580.41;;;15.24;91.82
79455;BME280;68900;52.134;5.420;2023-08-06T01:56:37;100580.41;;;15.24;92.19
79455;BME280;68900;52.134;5.420;2023-08-06T01:59:05;100581.25;;;15.24;91.81
79455;BME280;68900;52.134;5.420;2023-08-06T02:01:33;100584.16;;;15.23;91.53
79455;BME280;68900;52.134;5.420;2023-08-06T02:03:59;100588.38;;;15.25;91.98
79455;BME280;68900;52.134;5.420;2023-08-06T02:06:26;100591.09;;;15.25;92.11
79455;BME280;68900;52.134;5.420;2023-08-06T02:08:53;100583.13;;;15.24;92.53
79455;BME280;68900;52.134;5.420;2023-08-06T02:11:19;100588.75;;;15.22;92.27
79455;BME280;68900;52.134;5.420;2023-08-06T02:13:46;100591.47;;;15.22;92.25
79455;BME280;68900;52.134;5.420;2023-08-06T02:16:12;100586.53;;;15.26;92.13
79455;BME280;68900;52.134;5.420;2023-08-06T02:18:39;100588.19;;;15.27;92.34
79455;BME280;68900;52.134;5.420;2023-08-06T02:21:05;100586.59;;;15.18;92.75
79455;BME280;68900;52.134;5.420;2023-08-06T02:23:33;100585.94;;;15.16;92.69
79455;BME280;68900;52.134;5.420;2023-08-06T02:26:01;100583.59;;;15.13;93.06
79455;BME280;68900;52.134;5.420;2023-08-06T02:28:29;100581.72;;;15.13;93.15
79455;BME280;68900;52.134;5.420;2023-08-06T02:30:56;100584.16;;;15.08;92.93
79455;BME280;68900;52.134;5.420;2023-08-06T02:33:23;100582.28;;;15.09;93.41
79455;BME280;68900;52.134;5.420;2023-08-06T02:35:51;100574.81;;;15.11;93.40
79455;BME280;68900;52.134;5.420;2023-08-06T02:38:25;100587.72;;;15.09;93.08
79455;BME280;68900;52.134;5.420;2023-08-06T02:40:51;100582.00;;;15.03;93.74
79455;BME280;68900;52.134;5.420;2023-08-06T02:43:18;100582.50;;;15.07;93.32
79455;BME280;68900;52.134;5.420;2023-08-06T02:45:45;100575.66;;;15.11;92.94
79455;BME280;68900;52.134;5.420;2023-08-06T02:48:11;100576.28;;;15.13;93.45
79455;BME280;68900;52.134;5.420;2023-08-06T02:50:39;100574.41;;;15.14;93.14
79455;BME280;68900;52.134;5.420;2023-08-06T02:53:09;100578.53;;;15.10;93.23
79455;BME280;68900;52.134;5.420;2023-08-06T02:55:36;100572.09;;;15.11;93.51
79455;BME280;68900;52.134;5.420;2023-08-06T02:58:02;100569.38;;;15.11;93.26
79455;BME280;68900;52.134;5.420;2023-08-06T03:00:29;100569.38;;;15.11;93.48
79455;BME280;68900;52.134;5.420;2023-08-06T03:02:56;100570.38;;;15.10;93.68
79455;BME280;68900;52.134;5.420;2023-08-06T03:05:23;100564.66;;;15.04;93.53
79455;BME280;68900;52.134;5.420;2023-08-06T03:07:49;100565.06;;;15.01;94.12
79455;BME280;68900;52.134;5.420;2023-08-06T03:10:16;100552.94;;;15.04;94.18
79455;BME280;68900;52.134;5.420;2023-08-06T03:12:43;100563.34;;;15.00;93.92
79455;BME280;68900;52.134;5.420;2023-08-06T03:15:09;100554.75;;;14.97;94.07
79455;BME280;68900;52.134;5.420;2023-08-06T03:17:36;100559.06;;;15.06;93.97
79455;BME280;68900;52.134;5.420;2023-08-06T03:20:05;100559.81;;;15.15;93.88
79455;BME280;68900;52.134;5.420;2023-08-06T03:22:31;100555.66;;;15.19;94.10
79455;BME280;68900;52.134;5.420;2023-08-06T03:25:18;100554.25;;;15.23;93.66
79455;BME280;68900;52.134;5.420;2023-08-06T03:27:45;100559.69;;;15.23;93.85
79455;BME280;68900;52.134;5.420;2023-08-06T03:30:12;100563.44;;;15.22;93.61
79455;BME280;68900;52.134;5.420;2023-08-06T03:32:38;100561.22;;;15.25;93.04
79455;BME280;68900;52.134;5.420;2023-08-06T03:35:05;100562.88;;;15.26;93.10
79455;BME280;68900;52.134;5.420;2023-08-06T03:37:32;100556.69;;;15.18;93.14
79455;BME280;68900;52.134;5.420;2023-08-06T03:39:59;100559.91;;;15.21;93.22
79455;BME280;68900;52.134;5.420;2023-08-06T03:42:25;100557.38;;;15.20;93.39
79455;BME280;68900;52.134;5.420;2023-08-06T03:44:52;100562.06;;;15.26;92.93
79455;BME280;68900;52.134;5.420;2023-08-06T03:47:18;100565.22;;;15.29;93.14
79455;BME280;68900;52.134;5.420;2023-08-06T03:49:45;100562.69;;;15.28;93.06
79455;BME280;68900;52.134;5.420;2023-08-06T03:52:12;100564.56;;;15.27;93.01
79455;BME280;68900;52.134;5.420;2023-08-06T03:54:38;100567.66;;;15.24;92.86
79455;BME280;68900;52.134;5.420;2023-08-06T03:57:05;100569.38;;;15.25;93.08
79455;BME280;68900;52.134;5.420;2023-08-06T03:59:33;100564.50;;;15.21;92.48
79455;BME280;68900;52.134;5.420;2023-08-06T04:02:00;100564.22;;;15.16;92.77
79455;BME280;68900;52.134;5.420;2023-08-06T04:04:28;100561.50;;;15.16;93.28
79455;BME280;68900;52.134;5.420;2023-08-06T04:06:55;100564.22;;;15.16;93.02
79455;BME280;68900;52.134;5.420;2023-08-06T04:09:22;100566.53;;;15.19;92.79
79455;BME280;68900;52.134;5.420;2023-08-06T04:11:48;100562.53;;;15.15;93.22
79455;BME280;68900;52.134;5.420;2023-08-06T04:14:15;100566.72;;;15.17;92.98
79455;BME280;68900;52.134;5.420;2023-08-06T04:16:43;100561.69;;;15.14;92.89
79455;BME280;68900;52.134;5.420;2023-08-06T04:19:10;100560.19;;;15.12;93.24
79455;BME280;68900;52.134;5.420;2023-08-06T04:21:37;100567.84;;;15.08;93.41
79455;BME280;68900;52.134;5.420;2023-08-06T04:24:03;100564.38;;;14.99;93.67
79455;BME280;68900;52.134;5.420;2023-08-06T04:26:30;100567.94;;;15.00;94.24
79455;BME280;68900;52.134;5.420;2023-08-06T04:28:59;100571.34;;;15.02;94.31
79455;BME280;68900;52.134;5.420;2023-08-06T04:31:25;100578.94;;;15.07;93.94
79455;BME280;68900;52.134;5.420;2023-08-06T04:33:52;100578.94;;;15.07;93.59
79455;BME280;68900;52.134;5.420;2023-08-06T04:36:20;100579.94;;;15.06;93.81
79455;BME280;68900;52.134;5.420;2023-08-06T04:38:47;100577.06;;;15.07;94.11
79455;BME280;68900;52.134;5.420;2023-08-06T04:41:15;100589.78;;;15.07;93.13
79455;BME280;68900;52.134;5.420;2023-08-06T04:43:42;100584.44;;;15.13;93.41
79455;BME280;68900;52.134;5.420;2023-08-06T04:46:09;100583.81;;;15.11;93.28
79455;BME280;68900;52.134;5.420;2023-08-06T04:48:45;100589.88;;;15.13;93.48
79455;BME280;68900;52.134;5.420;2023-08-06T04:51:11;100588.19;;;15.12;93.80
79455;BME280;68900;52.134;5.420;2023-08-06T04:53:41;100595.50;;;15.12;93.48
79455;BME280;68900;52.134;5.420;2023-08-06T04:56:08;100589.53;;;15.16;94.00
79455;BME280;68900;52.134;5.420;2023-08-06T04:58:34;100587.44;;;15.18;93.54
79455;BME280;68900;52.134;5.420;2023-08-06T05:01:04;100590.91;;;15.12;93.79
79455;BME280;68900;52.134;5.420;2023-08-06T05:03:31;100593.16;;;15.09;93.72
79455;BME280;68900;52.134;5.420;2023-08-06T05:05:59;100590.91;;;15.12;94.31
79455;BME280;68900;52.134;5.420;2023-08-06T05:08:26;100591.94;;;15.11;94.23
79455;BME280;68900;52.134;5.420;2023-08-06T05:10:53;100593.34;;;15.07;94.23
79455;BME280;68900;52.134;5.420;2023-08-06T05:13:22;100604.03;;;15.09;94.56
79455;BME280;68900;52.134;5.420;2023-08-06T05:15:55;100603.00;;;15.10;94.51
79455;BME280;68900;52.134;5.420;2023-08-06T05:18:22;100608.53;;;15.16;94.41
79455;BME280;68900;52.134;5.420;2023-08-06T05:20:49;100612.75;;;15.19;94.26
79455;BME280;68900;52.134;5.420;2023-08-06T05:23:23;100617.50;;;15.17;94.34
79455;BME280;68900;52.134;5.420;2023-08-06T05:25:53;100622.47;;;15.13;93.97
79455;BME280;68900;52.134;5.420;2023-08-06T05:28:20;100620.16;;;15.10;93.91
79455;BME280;68900;52.134;5.420;2023-08-06T05:30:47;100623.03;;;15.09;94.49
79455;BME280;68900;52.134;5.420;2023-08-06T05:33:13;100626.03;;;15.14;94.31
79455;BME280;68900;52.134;5.420;2023-08-06T05:35:41;100625.50;;;15.18;94.19
79455;BME280;68900;52.134;5.420;2023-08-06T05:38:08;100629.72;;;15.21;94.43
79455;BME280;68900;52.134;5.420;2023-08-06T05:40:35;100630.06;;;15.18;94.19
79455;BME280;68900;52.134;5.420;2023-08-06T05:43:02;100633.81;;;15.17;94.31
79455;BME280;68900;52.134;5.420;2023-08-06T05:45:29;100638.63;;;15.15;94.37
79455;BME280;68900;52.134;5.420;2023-08-06T05:47:56;100636.53;;;15.17;94.73
79455;BME280;68900;52.134;5.420;2023-08-06T05:50:27;100639.75;;;15.20;94.64
79455;BME280;68900;52.134;5.420;2023-08-06T05:52:57;100645.19;;;15.20;94.71
79455;BME280;68900;52.134;5.420;2023-08-06T05:55:27;100643.94;;;15.23;94.69
79455;BME280;68900;52.134;5.420;2023-08-06T05:57:55;100643.59;;;15.26;94.85
79455;BME280;68900;52.134;5.420;2023-08-06T06:00:22;100652.09;;;15.23;94.34
79455;BME280;68900;52.134;5.420;2023-08-06T06:02:49;100654.19;;;15.21;94.40
79455;BME280;68900;52.134;5.420;2023-08-06T06:05:16;100653.50;;;15.19;94.76
79455;BME280;68900;52.134;5.420;2023-08-06T06:07:42;100657.06;;;15.19;94.37
79455;BME280;68900;52.134;5.420;2023-08-06T06:10:09;100657.38;;;15.24;94.78
79455;BME280;68900;52.134;5.420;2023-08-06T06:12:38;100665.69;;;15.23;94.49
79455;BME280;68900;52.134;5.420;2023-08-06T06:15:06;100667.38;;;15.24;94.83
79455;BME280;68900;52.134;5.420;2023-08-06T06:17:35;100666.72;;;15.22;94.70
79455;BME280;68900;52.134;5.420;2023-08-06T06:20:02;100671.13;;;15.23;94.41
79455;BME280;68900;52.134;5.420;2023-08-06T06:22:30;100669.72;;;15.27;94.94
79455;BME280;68900;52.134;5.420;2023-08-06T06:24:57;100680.88;;;15.32;94.80
79455;BME280;68900;52.134;5.420;2023-08-06T06:27:24;100675.44;;;15.32;95.36
79455;BME280;68900;52.134;5.420;2023-08-06T06:29:50;100681.56;;;15.34;95.17
79455;BME280;68900;52.134;5.420;2023-08-06T06:32:19;100683.59;;;15.32;94.81
79455;BME280;68900;52.134;5.420;2023-08-06T06:34:45;100689.88;;;15.32;95.13
79455;BME280;68900;52.134;5.420;2023-08-06T06:37:12;100690.84;;;15.39;95.19
79455;BME280;68900;52.134;5.420;2023-08-06T06:39:39;100696.47;;;15.38;94.73
79455;BME280;68900;52.134;5.420;2023-08-06T06:42:06;100692.50;;;15.40;94.38
79455;BME280;68900;52.134;5.420;2023-08-06T06:44:33;100697.09;;;15.40;94.53
79455;BME280;68900;52.134;5.420;2023-08-06T06:47:00;100695.06;;;15.42;94.42
79455;BME280;68900;52.134;5.420;2023-08-06T06:49:26;100698.81;;;15.41;94.73
79455;BME280;68900;52.134;5.420;2023-08-06T06:51:53;100695.06;;;15.42;94.46
79455;BME280;68900;52.134;5.420;2023-08-06T06:54:21;100696.19;;;15.47;94.62
79455;BME280;68900;52.134;5.420;2023-08-06T06:56:47;100695.72;;;15.44;94.69
79455;BME280;68900;52.134;5.420;2023-08-06T06:59:14;100697.59;;;15.43;94.81
79455;BME280;68900;52.134;5.420;2023-08-06T07:01:41;100703.69;;;15.45;95.02
79455;BME280;68900;52.134;5.420;2023-08-06T07:04:07;100698.56;;;15.51;94.43
79455;BME280;68900;52.134;5.420;2023-08-06T07:06:34;100697.69;;;15.50;94.38
79455;BME280;68900;52.134;5.420;2023-08-06T07:09:01;100699.41;;;15.51;94.31
79455;BME280;68900;52.134;5.420;2023-08-06T07:11:28;100706.88;;;15.49;94.65
79455;BME280;68900;52.134;5.420;2023-08-06T07:13:58;100700.97;;;15.45;94.20
79455;BME280;68900;52.134;5.420;2023-08-06T07:16:27;100704.06;;;15.42;94.57
79455;BME280;68900;52.134;5.420;2023-08-06T07:18:54;100703.03;;;15.43;94.69
79455;BME280;68900;52.134;5.420;2023-08-06T07:21:21;100703.59;;;15.39;94.78
79455;BME280;68900;52.134;5.420;2023-08-06T07:23:48;100703.38;;;15.40;94.61
79455;BME280;68900;52.134;5.420;2023-08-06T07:26:16;100710.06;;;15.38;94.69
79455;BME280;68900;52.134;5.420;2023-08-06T07:28:43;100709.13;;;15.45;95.03
79455;BME280;68900;52.134;5.420;2023-08-06T07:31:11;100711.81;;;15.54;95.50
79455;BME280;68900;52.134;5.420;2023-08-06T07:33:38;100717.88;;;15.56;94.42
79455;BME280;68900;52.134;5.420;2023-08-06T07:36:10;100716.84;;;15.57;95.23
79455;BME280;68900;52.134;5.420;2023-08-06T07:38:38;100720.44;;;15.57;94.57
79455;BME280;68900;52.134;5.420;2023-08-06T07:41:07;100717.16;;;15.62;94.41
79455;BME280;68900;52.134;5.420;2023-08-06T07:43:37;100723.72;;;15.67;94.44
79455;BME280;68900;52.134;5.420;2023-08-06T07:46:07;100725.22;;;15.70;94.67
79455;BME280;68900;52.134;5.420;2023-08-06T07:48:34;100722.66;;;15.68;94.49
79455;BME280;68900;52.134;5.420;2023-08-06T07:51:01;100724.63;;;15.74;95.00
79455;BME280;68900;52.134;5.420;2023-08-06T07:53:28;100729.22;;;15.74;94.17
79455;BME280;68900;52.134;5.420;2023-08-06T07:55:56;100724.19;;;15.71;94.79
79455;BME280;68900;52.134;5.420;2023-08-06T07:58:24;100726.34;;;15.75;94.21
79455;BME280;68900;52.134;5.420;2023-08-06T08:00:52;100731.94;;;15.74;94.28
79455;BME280;68900;52.134;5.420;2023-08-06T08:03:19;100730.66;;;15.70;93.76
79455;BME280;68900;52.134;5.420;2023-08-06T08:05:47;100725.50;;;15.75;93.64
79455;BME280;68900;52.134;5.420;2023-08-06T08:08:14;100729.06;;;15.75;93.44
79455;BME280;68900;52.134;5.420;2023-08-06T08:10:42;100732.41;;;15.77;93.77
79455;BME280;68900;52.134;5.420;2023-08-06T08:13:08;100730.66;;;15.70;93.80
79455;BME280;68900;52.134;5.420;2023-08-06T08:15:36;100729.34;;;15.66;93.54
79455;BME280;68900;52.134;5.420;2023-08-06T08:18:03;100735.34;;;15.61;93.46
79455;BME280;68900;52.134;5.420;2023-08-06T08:20:30;100739.34;;;15.51;93.21
79455;BME280;68900;52.134;5.420;2023-08-06T08:23:02;100738.94;;;15.39;93.75
79455;BME280;68900;52.134;5.420;2023-08-06T08:25:29;100740.13;;;15.36;93.59
79455;BME280;68900;52.134;5.420;2023-08-06T08:27:57;100742.00;;;15.36;93.80
79455;BME280;68900;52.134;5.420;2023-08-06T08:30:24;100746.34;;;15.30;93.51
79455;BME280;68900;52.134;5.420;2023-08-06T08:32:52;100747.53;;;15.28;93.69
79455;BME280;68900;52.134;5.420;2023-08-06T08:35:19;100753.06;;;15.20;93.21
79455;BME280;68900;52.134;5.420;2023-08-06T08:37:46;100752.75;;;15.15;93.74
79455;BME280;68900;52.134;5.420;2023-08-06T08:40:14;100750.03;;;15.15;93.26
79455;BME280;68900;52.134;5.420;2023-08-06T08:42:41;100751.34;;;15.19;93.63
79455;BME280;68900;52.134;5.420;2023-08-06T08:45:13;100750.88;;;15.15;93.30
79455;BME280;68900;52.134;5.420;2023-08-06T08:47:44;100756.19;;;15.09;93.37
79455;BME280;68900;52.134;5.420;2023-08-06T08:50:13;100762.66;;;15.08;93.77
79455;BME280;68900;52.134;5.420;2023-08-06T08:52:42;100761.84;;;15.07;93.64
79455;BME280;68900;52.134;5.420;2023-08-06T08:55:14;100772.69;;;15.07;93.58
79455;BME280;68900;52.134;5.420;2023-08-06T08:57:42;100762.84;;;15.06;93.29
79455;BME280;68900;52.134;5.420;2023-08-06T09:00:10;100767.06;;;15.09;93.35
79455;BME280;68900;52.134;5.420;2023-08-06T09:02:37;100768.09;;;15.08;93.14
79455;BME280;68900;52.134;5.420;2023-08-06T09:05:06;100779.31;;;15.04;93.03
79455;BME280;68900;52.134;5.420;2023-08-06T09:07:52;100780.56;;;15.02;93.49
79455;BME280;68900;52.134;5.420;2023-08-06T09:10:20;100779.50;;;15.03;93.42
79455;BME280;68900;52.134;5.420;2023-08-06T09:12:51;100784.28;;;15.01;93.71
79455;BME280;68900;52.134;5.420;2023-08-06T09:15:20;100781.41;;;15.02;93.67
79455;BME280;68900;52.134;5.420;2023-08-06T09:17:49;100785.47;;;14.98;93.74
79455;BME280;68900;52.134;5.420;2023-08-06T09:20:16;100791.97;;;14.97;94.65
79455;BME280;68900;52.134;5.420;2023-08-06T09:22:43;100791.66;;;14.92;93.75
79455;BME280;68900;52.134;5.420;2023-08-06T09:25:11;100802.03;;;14.89;94.10
79455;BME280;68900;52.134;5.420;2023-08-06T09:27:46;100806.63;;;14.88;94.07
79455;BME280;68900;52.134;5.420;2023-08-06T09:30:31;100805.94;;;14.86;93.94
79455;BME280;68900;52.134;5.420;2023-08-06T09:32:58;100809.16;;;14.90;94.66
79455;BME280;68900;52.134;5.420;2023-08-06T09:35:28;100812.91;;;14.89;94.22
79455;BME280;68900;52.134;5.420;2023-08-06T09:38:04;100818.16;;;14.90;94.39
79455;BME280;68900;52.134;5.420;2023-08-06T09:40:33;100810.84;;;14.91;94.46
79455;BME280;68900;52.134;5.420;2023-08-06T09:43:01;100819.69;;;14.93;94.55
79455;BME280;68900;52.134;5.420;2023-08-06T09:45:32;100817.44;;;14.96;94.38
79455;BME280;68900;52.134;5.420;2023-08-06T09:48:02;100822.81;;;15.04;93.93
79455;BME280;68900;52.134;5.420;2023-08-06T09:50:31;100829.94;;;15.06;94.17
79455;BME280;68900;52.134;5.420;2023-08-06T09:52:59;100831.63;;;15.07;94.28
79455;BME280;68900;52.134;5.420;2023-08-06T09:55:26;100833.66;;;15.04;93.91
79455;BME280;68900;52.134;5.420;2023-08-06T09:57:54;100829.75;;;15.07;93.86
79455;BME280;68900;52.134;5.420;2023-08-06T10:00:22;100829.09;;;15.05;93.87
79455;BME280;68900;52.134;5.420;2023-08-06T10:02:50;100842.84;;;15.03;93.72
79455;BME280;68900;52.134;5.420;2023-08-06T10:05:24;100846.78;;;15.01;93.83
79455;BME280;68900;52.134;5.420;2023-08-06T10:07:52;100840.13;;;15.03;93.99
79455;BME280;68900;52.134;5.420;2023-08-06T10:10:20;100848.78;;;15.07;93.69
79455;BME280;68900;52.134;5.420;2023-08-06T10:12:49;100847.72;;;15.08;94.09
79455;BME280;68900;52.134;5.420;2023-08-06T10:15:22;100850.97;;;15.12;93.65
79455;BME280;68900;52.134;5.420;2023-08-06T10:17:53;100854.31;;;15.14;94.26
79455;BME280;68900;52.134;5.420;2023-08-06T10:20:21;100860.78;;;15.13;94.06
79455;BME280;68900;52.134;5.420;2023-08-06T10:23:09;100859.75;;;15.14;93.94
79455;BME280;68900;52.134;5.420;2023-08-06T10:25:40;100861.84;;;15.12;93.19
79455;BME280;68900;52.134;5.420;2023-08-06T10:28:09;100855.53;;;15.11;93.69
79455;BME280;68900;52.134;5.420;2023-08-06T10:30:43;100859.59;;;15.15;93.38
79455;BME280;68900;52.134;5.420;2023-08-06T10:33:10;100857.72;;;15.16;93.21
79455;BME280;68900;52.134;5.420;2023-08-06T10:35:41;100862.09;;;15.17;93.70
79455;BME280;68900;52.134;5.420;2023-08-06T10:38:14;100855.66;;;15.18;93.26
79455;BME280;68900;52.134;5.420;2023-08-06T10:43:31;100858.19;;;15.19;93.57
79455;BME280;68900;52.134;5.420;2023-08-06T10:46:00;100860.75;;;15.21;94.02
79455;BME280;68900;52.134;5.420;2023-08-06T10:48:34;100860.84;;;15.27;93.98
79455;BME280;68900;52.134;5.420;2023-08-06T10:51:01;100864.72;;;15.33;93.99
79455;BME280;68900;52.134;5.420;2023-08-06T10:53:29;100866.97;;;15.29;93.55
79455;BME280;68900;52.134;5.420;2023-08-06T10:55:59;100866.28;;;15.27;93.20
79455;BME280;68900;52.134;5.420;2023-08-06T10:58:33;100876.81;;;15.30;93.81
79455;BME280;68900;52.134;5.420;2023-08-06T11:01:01;100874.91;;;15.31;93.29
79455;BME280;68900;52.134;5.420;2023-08-06T11:03:34;100873.56;;;15.35;93.67
79455;BME280;68900;52.134;5.420;2023-08-06T11:06:01;100878.50;;;15.31;93.62
79455;BME280;68900;52.134;5.420;2023-08-06T11:08:33;100877.28;;;15.34;93.22
79455;BME280;68900;52.134;5.420;2023-08-06T11:11:10;100882.72;;;15.34;92.54
79455;BME280;68900;52.134;5.420;2023-08-06T11:13:45;100882.25;;;15.30;92.94
79455;BME280;68900;52.134;5.420;2023-08-06T11:16:14;100883.91;;;15.31;92.37
79455;BME280;68900;52.134;5.420;2023-08-06T11:18:41;100889.34;;;15.31;92.79
79455;BME280;68900;52.134;5.420;2023-08-06T11:21:11;100889.34;;;15.31;92.77
79455;BME280;68900;52.134;5.420;2023-08-06T11:23:40;100888.88;;;15.28;92.83
79455;BME280;68900;52.134;5.420;2023-08-06T11:26:07;100895.72;;;15.24;92.81
79455;BME280;68900;52.134;5.420;2023-08-06T11:28:34;100904.41;;;15.19;92.68
79455;BME280;68900;52.134;5.420;2023-08-06T11:31:01;100898.81;;;15.21;92.81
79455;BME280;68900;52.134;5.420;2023-08-06T11:33:30;100904.41;;;15.19;93.21
79455;BME280;68900;52.134;5.420;2023-08-06T11:35:58;100906.44;;;15.17;92.63
79455;BME280;68900;52.134;5.420;2023-08-06T11:38:26;100903.63;;;15.11;92.98
79455;BME280;68900;52.134;5.420;2023-08-06T11:40:53;100907.34;;;15.10;92.31
79455;BME280;68900;52.134;5.420;2023-08-06T11:43:21;100907.72;;;15.07;92.55
79455;BME280;68900;52.134;5.420;2023-08-06T11:45:50;100913.31;;;15.05;92.98
79455;BME280;68900;52.134;5.420;2023-08-06T11:48:18;100915.72;;;15.00;92.56
79455;BME280;68900;52.134;5.420;2023-08-06T11:50:48;100904.91;;;14.92;92.59
79455;BME280;68900;52.134;5.420;2023-08-06T11:53:15;100905.44;;;14.87;92.43
79455;BME280;68900;52.134;5.420;2023-08-06T11:55:42;100909.00;;;14.88;92.84
79455;BME280;68900;52.134;5.420;2023-08-06T11:58:10;100916.16;;;14.89;92.39
79455;BME280;68900;52.134;5.420;2023-08-06T12:00:42;100912.75;;;14.87;92.39
79455;BME280;68900;52.134;5.420;2023-08-06T12:03:09;100910.19;;;14.85;92.98
79455;BME280;68900;52.134;5.420;2023-08-06T12:05:37;100911.56;;;14.81;92.75
79455;BME280;68900;52.134;5.420;2023-08-06T12:08:05;100913.94;;;14.84;93.39
79455;BME280;68900;52.134;5.420;2023-08-06T12:10:33;100913.09;;;14.84;93.39
79455;BME280;68900;52.134;5.420;2023-08-06T12:13:00;100914.78;;;14.85;93.69
79455;BME280;68900;52.134;5.420;2023-08-06T12:15:27;100919.03;;;14.87;94.41
79455;BME280;68900;52.134;5.420;2023-08-06T12:17:57;100920.38;;;14.91;94.34
79455;BME280;68900;52.134;5.420;2023-08-06T12:20:24;100930.53;;;14.97;94.31
79455;BME280;68900;52.134;5.420;2023-08-06T12:22:54;100926.97;;;14.97;94.69
79455;BME280;68900;52.134;5.420;2023-08-06T12:25:21;100935.59;;;15.00;94.45
79455;BME280;68900;52.134;5.420;2023-08-06T12:27:48;100940.19;;;15.00;94.32
79455;BME280;68900;52.134;5.420;2023-08-06T12:30:14;100933.38;;;15.04;94.04
79455;BME280;68900;52.134;5.420;2023-08-06T12:32:41;100938.81;;;15.04;94.12
79455;BME280;68900;52.134;5.420;2023-08-06T12:35:11;100936.28;;;15.02;94.39
79455;BME280;68900;52.134;5.420;2023-08-06T12:37:38;100945.09;;;15.04;94.23
79455;BME280;68900;52.134;5.420;2023-08-06T12:40:06;100945.22;;;15.11;94.08
79455;BME280;68900;52.134;5.420;2023-08-06T12:42:53;100942.50;;;15.11;94.23
79455;BME280;68900;52.134;5.420;2023-08-06T12:45:19;100957.59;;;15.14;94.04
79455;BME280;68900;52.134;5.420;2023-08-06T12:47:48;100954.53;;;15.17;94.19
79455;BME280;68900;52.134;5.420;2023-08-06T12:50:16;100962.34;;;15.20;94.35
79455;BME280;68900;52.134;5.420;2023-08-06T12:52:44;100960.47;;;15.20;94.09
79455;BME280;68900;52.134;5.420;2023-08-06T12:55:11;100963.31;;;15.27;94.32
79455;BME280;68900;52.134;5.420;2023-08-06T12:57:38;100966.69;;;15.29;94.03
79455;BME280;68900;52.134;5.420;2023-08-06T13:00:23;100974.69;;;15.30;94.04